createdAt,value
2017-07-27T00:02:16.880Z,47.67
2017-07-27T00:04:44.433Z,47.53
2017-07-27T00:07:11.986Z,48.87
2017-07-27T00:09:39.830Z,46.07
2017-07-27T00:12:07.410Z,49.10
2017-07-27T00:14:35.007Z,40.83
2017-07-27T00:17:02.562Z,48.60
2017-07-27T00:19:30.170Z,44.83
2017-07-27T00:21:58.830Z,39.93
2017-07-27T00:24:26.384Z,45.57
2017-07-27T00:26:53.958Z,41.60
2017-07-27T00:29:21.571Z,52.90
2017-07-27T00:31:49.138Z,44.03
2017-07-27T00:34:17.073Z,39.60
2017-07-27T00:36:44.746Z,43.37
2017-07-27T00:39:12.336Z,41.97
2017-07-27T00:41:39.972Z,43.13
2017-07-27T00:44:07.546Z,36.40
2017-07-27T00:46:35.411Z,39.37
2017-07-27T00:49:02.965Z,41.67
2017-07-27T00:51:30.516Z,41.63
2017-07-27T00:53:58.145Z,37.13
2017-07-27T00:56:25.743Z,43.70
2017-07-27T00:58:53.569Z,34.17
2017-07-27T01:01:21.117Z,32.50
2017-07-27T01:03:48.651Z,33.30
2017-07-27T01:06:16.244Z,36.87
2017-07-27T01:08:43.819Z,34.63
2017-07-27T01:11:11.759Z,30.87
2017-07-27T01:13:39.283Z,28.27
2017-07-27T01:16:06.835Z,33.73
2017-07-27T01:18:34.434Z,30.50
2017-07-27T01:21:02.007Z,35.07
2017-07-27T01:23:29.804Z,34.80
2017-07-27T01:25:57.416Z,33.67
2017-07-27T01:28:24.947Z,33.47
2017-07-27T01:30:52.522Z,33.40
2017-07-27T01:33:20.052Z,36.93
2017-07-27T01:35:47.997Z,28.37
2017-07-27T01:38:15.538Z,34.67
2017-07-27T01:40:43.081Z,29.40
2017-07-27T01:43:10.668Z,31.97
2017-07-27T01:45:39.180Z,27.00
2017-07-27T01:48:07.830Z,32.20
2017-07-27T01:50:35.389Z,29.83
2017-07-27T01:53:02.907Z,31.00
2017-07-27T01:55:30.535Z,35.00
2017-07-27T01:57:58.063Z,37.97
2017-07-27T02:00:25.899Z,30.33
2017-07-27T02:02:53.425Z,36.03
2017-07-27T02:05:22.457Z,26.73
2017-07-27T02:07:50.036Z,31.90
2017-07-27T02:10:17.586Z,28.00
2017-07-27T02:12:45.511Z,35.47
2017-07-27T02:15:13.087Z,35.47
2017-07-27T02:17:40.611Z,33.20
2017-07-27T02:20:08.187Z,34.97
2017-07-27T02:22:35.721Z,31.43
2017-07-27T02:25:03.589Z,30.97
2017-07-27T02:27:31.136Z,31.63
2017-07-27T02:29:58.733Z,27.10
2017-07-27T02:32:26.291Z,26.60
2017-07-27T02:34:53.841Z,33.97
2017-07-27T02:37:21.685Z,31.80
2017-07-27T02:39:49.242Z,32.87
2017-07-27T02:42:16.795Z,34.60
2017-07-27T02:44:44.352Z,31.03
2017-07-27T02:47:11.884Z,29.33
2017-07-27T02:49:40.548Z,30.43
2017-07-27T02:52:08.102Z,31.23
2017-07-27T02:54:35.664Z,35.87
2017-07-27T02:57:03.211Z,29.50
2017-07-27T02:59:30.782Z,32.67
2017-07-27T03:01:58.649Z,36.70
2017-07-27T03:04:26.203Z,30.60
2017-07-27T03:06:53.740Z,33.93
2017-07-27T03:09:21.322Z,33.63
2017-07-27T03:11:48.875Z,33.80
2017-07-27T03:14:16.732Z,33.40
2017-07-27T03:16:44.290Z,36.83
2017-07-27T03:19:11.831Z,36.10
2017-07-27T03:21:39.414Z,36.03
2017-07-27T03:24:06.962Z,32.47
2017-07-27T03:26:34.883Z,37.43
2017-07-27T03:29:02.457Z,32.90
2017-07-27T03:31:30.765Z,30.93
2017-07-27T03:33:58.338Z,38.40
2017-07-27T03:36:25.869Z,33.40
2017-07-27T03:38:53.898Z,31.40
2017-07-27T03:41:21.455Z,28.20
2017-07-27T03:43:49.005Z,29.53
2017-07-27T03:46:16.574Z,26.60
2017-07-27T03:48:44.111Z,33.23
2017-07-27T03:51:11.960Z,35.10
2017-07-27T03:53:39.508Z,36.40
2017-07-27T03:56:07.056Z,34.53
2017-07-27T03:58:34.626Z,32.67
2017-07-27T04:01:02.932Z,38.27
2017-07-27T04:03:30.821Z,37.37
2017-07-27T04:05:58.371Z,35.27
2017-07-27T04:08:25.901Z,37.47
2017-07-27T04:10:53.487Z,43.73
2017-07-27T04:13:21.012Z,42.60
2017-07-27T04:15:48.935Z,40.27
2017-07-27T04:18:16.463Z,35.70
2017-07-27T04:20:43.997Z,41.17
2017-07-27T04:23:12.334Z,43.20
2017-07-27T04:25:39.867Z,39.40
2017-07-27T04:28:07.754Z,39.77
2017-07-27T04:30:35.304Z,35.40
2017-07-27T04:33:02.849Z,39.13
2017-07-27T04:35:30.415Z,40.87
2017-07-27T04:37:57.961Z,47.03
2017-07-27T04:40:25.885Z,42.03
2017-07-27T04:42:53.453Z,42.13
2017-07-27T04:45:20.985Z,33.53
2017-07-27T04:47:48.536Z,27.37
2017-07-27T04:50:16.182Z,31.87
2017-07-27T04:52:44.165Z,31.47
2017-07-27T04:55:11.726Z,33.93
2017-07-27T04:57:51.312Z,27.03
2017-07-27T05:00:18.847Z,32.63
2017-07-27T05:02:46.377Z,28.80
2017-07-27T05:05:13.940Z,29.57
2017-07-27T05:07:42.190Z,26.20
2017-07-27T05:10:10.141Z,37.00
2017-07-27T05:12:37.724Z,23.77
2017-07-27T05:15:05.251Z,35.83
2017-07-27T05:17:32.838Z,26.03
2017-07-27T05:20:00.429Z,24.63
2017-07-27T05:22:28.331Z,30.50
2017-07-27T05:24:55.853Z,26.40
2017-07-27T05:27:23.398Z,23.30
2017-07-27T05:29:50.949Z,24.27
2017-07-27T05:32:18.499Z,24.97
2017-07-27T05:34:46.480Z,29.83
2017-07-27T05:37:14.787Z,25.50
2017-07-27T05:39:43.020Z,32.57
2017-07-27T05:42:10.614Z,27.73
2017-07-27T05:44:38.146Z,27.87
2017-07-27T05:47:06.799Z,25.30
2017-07-27T05:49:34.410Z,20.33
2017-07-27T05:52:02.688Z,27.97
2017-07-27T05:54:30.262Z,21.63
2017-07-27T05:56:57.836Z,18.37
2017-07-27T05:59:25.752Z,20.47
2017-07-27T06:01:54.048Z,18.97
2017-07-27T06:04:21.618Z,18.33
2017-07-27T06:06:49.191Z,15.97
2017-07-27T06:09:16.740Z,19.23
2017-07-27T06:11:46.743Z,15.00
2017-07-27T06:14:15.149Z,17.10
2017-07-27T06:16:42.732Z,18.30
2017-07-27T06:19:10.564Z,15.30
2017-07-27T06:21:38.100Z,16.20
2017-07-27T06:24:06.042Z,18.03
2017-07-27T06:26:33.588Z,14.90
2017-07-27T06:29:01.141Z,15.83
2017-07-27T06:31:28.812Z,19.50
2017-07-27T06:33:56.357Z,16.23
2017-07-27T06:36:24.318Z,17.77
2017-07-27T06:38:51.899Z,18.33
2017-07-27T06:41:19.492Z,17.10
2017-07-27T06:43:47.102Z,15.77
2017-07-27T06:46:14.696Z,15.13
2017-07-27T06:48:42.617Z,15.03
2017-07-27T06:51:10.930Z,16.30
2017-07-27T06:53:38.527Z,15.57
2017-07-27T06:56:06.142Z,15.27
2017-07-27T06:58:33.835Z,14.63
2017-07-27T07:01:01.720Z,15.80
2017-07-27T07:03:29.314Z,15.53
2017-07-27T07:05:57.695Z,16.50
2017-07-27T07:08:25.260Z,15.20
2017-07-27T07:10:52.793Z,15.17
2017-07-27T07:13:20.636Z,13.30
2017-07-27T07:15:48.180Z,15.30
2017-07-27T07:18:15.720Z,13.40
2017-07-27T07:20:43.275Z,13.63
2017-07-27T07:23:10.806Z,14.50
2017-07-27T07:25:38.790Z,13.87
2017-07-27T07:28:07.104Z,14.30
2017-07-27T07:30:34.622Z,16.53
2017-07-27T07:33:02.955Z,12.80
2017-07-27T07:35:30.528Z,12.60
2017-07-27T07:37:58.474Z,13.50
2017-07-27T07:40:26.139Z,15.30
2017-07-27T07:42:53.663Z,11.77
2017-07-27T07:45:21.222Z,12.50
2017-07-27T07:47:48.792Z,12.50
2017-07-27T07:50:16.709Z,11.30
2017-07-27T07:52:44.261Z,11.23
2017-07-27T07:55:11.798Z,12.20
2017-07-27T07:57:39.388Z,11.33
2017-07-27T08:00:06.916Z,11.10
2017-07-27T08:02:34.920Z,12.80
2017-07-27T08:05:02.479Z,11.13
2017-07-27T08:07:30.021Z,12.20
2017-07-27T08:10:09.276Z,10.30
2017-07-27T08:12:36.820Z,10.47
2017-07-27T08:15:04.837Z,10.83
2017-07-27T08:17:33.160Z,10.10
2017-07-27T08:20:00.698Z,14.60
2017-07-27T08:22:28.870Z,11.27
2017-07-27T08:24:56.404Z,11.37
2017-07-27T08:27:25.172Z,9.37
2017-07-27T08:29:52.717Z,10.30
2017-07-27T08:32:20.264Z,9.57
2017-07-27T08:34:47.836Z,9.97
2017-07-27T08:37:15.387Z,9.33
2017-07-27T08:39:43.225Z,10.30
2017-07-27T08:42:10.853Z,10.47
2017-07-27T08:44:38.395Z,9.37
2017-07-27T08:47:05.943Z,9.00
2017-07-27T08:49:33.495Z,7.67
2017-07-27T08:52:01.437Z,9.53
2017-07-27T08:54:28.986Z,8.33
2017-07-27T08:56:56.549Z,7.93
2017-07-27T08:59:24.151Z,9.07
2017-07-27T09:01:51.760Z,8.30
2017-07-27T09:04:20.405Z,10.23
2017-07-27T09:06:48.638Z,9.17
2017-07-27T09:09:16.221Z,9.63
2017-07-27T09:11:43.847Z,13.70
2017-07-27T09:14:11.389Z,7.37
2017-07-27T09:16:39.233Z,7.73
2017-07-27T09:19:06.887Z,7.37
2017-07-27T09:21:34.426Z,8.23
2017-07-27T09:24:01.988Z,7.20
2017-07-27T09:26:29.506Z,7.83
2017-07-27T09:28:58.106Z,7.83
2017-07-27T09:31:25.657Z,8.40
2017-07-27T09:33:53.603Z,8.43
2017-07-27T09:36:21.195Z,8.90
2017-07-27T09:38:49.497Z,7.77
2017-07-27T09:41:17.464Z,9.53
2017-07-27T09:43:44.997Z,8.50
2017-07-27T09:46:12.563Z,8.87
2017-07-27T09:48:40.160Z,8.63
2017-07-27T09:51:07.701Z,8.60
2017-07-27T09:53:35.870Z,10.27
2017-07-27T09:56:03.430Z,9.63
2017-07-27T09:58:30.967Z,8.90
2017-07-27T10:00:58.557Z,8.70
2017-07-27T10:03:27.169Z,9.70
2017-07-27T10:05:55.130Z,9.97
2017-07-27T10:08:22.647Z,8.70
2017-07-27T10:10:50.178Z,8.43
2017-07-27T10:13:17.756Z,9.23
2017-07-27T10:15:46.100Z,8.33
2017-07-27T10:18:13.977Z,7.40
2017-07-27T10:20:41.510Z,8.50
2017-07-27T10:23:09.064Z,8.03
2017-07-27T10:25:36.604Z,8.33
2017-07-27T10:28:04.161Z,7.30
2017-07-27T10:30:32.076Z,7.40
2017-07-27T10:32:59.614Z,7.53
2017-07-27T10:35:27.186Z,6.60
2017-07-27T10:37:54.758Z,7.53
2017-07-27T10:40:22.316Z,7.10
2017-07-27T10:42:50.202Z,6.90
2017-07-27T10:45:17.729Z,7.63
2017-07-27T10:47:45.278Z,8.90
2017-07-27T10:50:12.820Z,7.10
2017-07-27T10:52:40.389Z,6.37
2017-07-27T10:55:09.035Z,6.43
2017-07-27T10:57:36.594Z,6.23
2017-07-27T11:00:04.116Z,6.83
2017-07-27T11:02:31.667Z,6.67
2017-07-27T11:04:59.206Z,8.63
2017-07-27T11:07:27.136Z,6.53
2017-07-27T11:09:54.676Z,7.27
2017-07-27T11:12:22.213Z,7.13
2017-07-27T11:14:49.761Z,7.20
2017-07-27T11:17:17.304Z,7.20
2017-07-27T11:19:45.371Z,7.10
2017-07-27T11:22:12.923Z,6.60
2017-07-27T11:24:40.455Z,7.77
2017-07-27T11:27:08.029Z,7.60
2017-07-27T11:29:35.547Z,6.60
2017-07-27T11:32:03.420Z,7.80
2017-07-27T11:34:31.176Z,8.30
2017-07-27T11:36:58.738Z,7.90
2017-07-27T11:39:26.328Z,8.10
2017-07-27T11:41:53.858Z,8.20
2017-07-27T11:44:22.493Z,8.10
2017-07-27T11:46:50.043Z,9.03
2017-07-27T11:49:17.582Z,9.30
2017-07-27T11:51:45.161Z,8.93
2017-07-27T11:54:12.717Z,10.03
2017-07-27T11:56:40.629Z,11.07
2017-07-27T11:59:08.159Z,12.03
2017-07-27T12:01:35.692Z,11.83
2017-07-27T12:04:03.678Z,12.50
2017-07-27T12:06:31.213Z,13.47
2017-07-27T12:08:59.045Z,15.13
2017-07-27T12:11:26.602Z,15.03
2017-07-27T12:13:55.198Z,13.33
2017-07-27T12:16:22.775Z,14.87
2017-07-27T12:18:51.069Z,15.50
2017-07-27T12:21:18.986Z,14.80
2017-07-27T12:23:46.773Z,14.50
2017-07-27T12:26:15.352Z,13.87
2017-07-27T12:28:42.913Z,12.53
2017-07-27T12:31:10.445Z,13.70
2017-07-27T12:33:38.276Z,14.27
2017-07-27T12:36:06.623Z,14.27
2017-07-27T12:38:34.203Z,14.30
2017-07-27T12:41:01.815Z,15.23
2017-07-27T12:43:29.373Z,13.80
2017-07-27T12:45:57.213Z,13.47
2017-07-27T12:48:24.918Z,14.50
2017-07-27T12:50:52.497Z,23.60
2017-07-27T12:53:20.830Z,16.67
2017-07-27T12:55:48.356Z,15.63
2017-07-27T12:58:16.223Z,15.43
2017-07-27T13:00:43.775Z,14.97
2017-07-27T13:03:11.353Z,14.93
2017-07-27T13:05:38.949Z,14.83
2017-07-27T13:08:06.488Z,14.63
2017-07-27T13:10:34.438Z,10.90
2017-07-27T13:13:02.020Z,8.70
2017-07-27T13:15:29.534Z,7.70
2017-07-27T13:17:57.098Z,8.33
2017-07-27T13:20:24.645Z,7.03
2017-07-27T13:22:52.591Z,7.23
2017-07-27T13:25:20.147Z,8.30
2017-07-27T13:27:47.981Z,7.90
2017-07-27T13:30:15.574Z,7.20
2017-07-27T13:32:43.157Z,8.43
2017-07-27T13:35:10.998Z,7.77
2017-07-27T13:37:38.535Z,8.53
2017-07-27T13:40:06.074Z,9.30
2017-07-27T13:42:34.408Z,9.57
2017-07-27T13:45:01.973Z,9.27
2017-07-27T13:47:31.745Z,9.27
2017-07-27T13:49:59.334Z,8.93
2017-07-27T13:52:26.903Z,8.30
2017-07-27T13:54:54.464Z,9.40
2017-07-27T13:57:21.996Z,10.10
2017-07-27T13:59:49.892Z,10.20
2017-07-27T14:02:17.458Z,9.60
2017-07-27T14:04:45.002Z,10.20
2017-07-27T14:07:12.579Z,9.00
2017-07-27T14:09:40.119Z,8.80
2017-07-27T14:12:08.050Z,11.20
2017-07-27T14:14:36.370Z,9.20
2017-07-27T14:17:04.194Z,9.53
2017-07-27T14:19:32.541Z,9.40
2017-07-27T14:22:00.070Z,9.40
2017-07-27T14:24:28.087Z,9.63
2017-07-27T14:26:55.690Z,8.60
2017-07-27T14:29:23.222Z,9.30
2017-07-27T14:31:51.573Z,8.07
2017-07-27T14:34:19.113Z,8.13
2017-07-27T14:36:46.989Z,6.40
2017-07-27T14:39:14.558Z,6.63
2017-07-27T14:41:42.897Z,6.33
2017-07-27T14:44:10.447Z,6.80
2017-07-27T14:46:38.771Z,8.63
2017-07-27T14:49:06.712Z,7.10
2017-07-27T14:51:35.247Z,6.53
2017-07-27T14:54:02.786Z,5.70
2017-07-27T14:56:30.348Z,7.27
2017-07-27T14:58:57.863Z,5.60
2017-07-27T15:01:29.042Z,6.33
2017-07-27T15:03:56.575Z,6.30
2017-07-27T15:06:24.134Z,4.90
2017-07-27T15:08:51.698Z,5.40
2017-07-27T15:11:19.225Z,4.80
2017-07-27T15:13:47.908Z,4.90
2017-07-27T15:16:15.478Z,4.53
2017-07-27T15:18:43.791Z,4.37
2017-07-27T15:21:11.354Z,4.77
2017-07-27T15:23:38.879Z,5.50
2017-07-27T15:26:07.567Z,5.93
2017-07-27T15:28:35.140Z,4.53
2017-07-27T15:31:02.798Z,4.50
2017-07-27T15:33:30.405Z,5.63
2017-07-27T15:35:57.938Z,5.23
2017-07-27T15:38:25.844Z,4.70
2017-07-27T15:40:53.410Z,7.60
2017-07-27T15:43:20.941Z,5.40
2017-07-27T15:45:48.511Z,5.70
2017-07-27T15:48:16.046Z,6.20
2017-07-27T15:50:43.966Z,5.83
2017-07-27T15:53:12.005Z,5.80
2017-07-27T15:55:39.578Z,5.70
2017-07-27T15:58:07.192Z,6.07
2017-07-27T16:00:34.891Z,5.90
2017-07-27T16:03:02.790Z,7.00
2017-07-27T16:05:30.358Z,6.27
2017-07-27T16:07:57.893Z,6.53
2017-07-27T16:10:25.488Z,6.37
2017-07-27T16:12:53.792Z,6.80
2017-07-27T16:15:21.670Z,6.87
2017-07-27T16:17:49.196Z,7.40
2017-07-27T16:20:17.511Z,7.00
2017-07-27T16:22:45.114Z,7.37
2017-07-27T16:25:12.669Z,8.07
2017-07-27T16:27:40.553Z,7.03
2017-07-27T16:30:08.093Z,6.70
2017-07-27T16:32:35.686Z,7.63
2017-07-27T16:35:04.042Z,7.63
2017-07-27T16:37:31.582Z,6.33
2017-07-27T16:39:59.468Z,5.90
2017-07-27T16:42:26.992Z,6.60
2017-07-27T16:44:54.575Z,6.20
2017-07-27T16:47:22.218Z,6.40
2017-07-27T16:49:49.755Z,6.17
2017-07-27T16:52:17.644Z,5.73
2017-07-27T16:54:45.189Z,6.40
2017-07-27T16:57:12.783Z,5.33
2017-07-27T16:59:40.351Z,5.53
2017-07-27T17:02:07.892Z,6.03
2017-07-27T17:04:35.782Z,5.30
2017-07-27T17:07:03.359Z,6.50
2017-07-27T17:09:30.898Z,7.43
2017-07-27T17:11:58.483Z,7.33
2017-07-27T17:14:26.069Z,7.90
2017-07-27T17:16:53.934Z,7.03
2017-07-27T17:19:21.499Z,7.83
2017-07-27T17:21:49.078Z,8.00
2017-07-27T17:24:16.704Z,7.50
2017-07-27T17:26:44.318Z,7.73
2017-07-27T17:29:12.298Z,7.70
2017-07-27T17:31:39.831Z,7.03
2017-07-27T17:34:07.389Z,6.43
2017-07-27T17:36:35.817Z,7.27
2017-07-27T17:39:03.492Z,9.07
2017-07-27T17:41:31.358Z,8.23
2017-07-27T17:44:05.285Z,8.67
2017-07-27T17:49:28.624Z,11.30
2017-07-27T17:54:45.065Z,7.50
2017-07-27T17:57:13.507Z,8.57
2017-07-27T17:59:41.908Z,7.60
2017-07-27T18:02:09.518Z,9.13
2017-07-27T18:04:37.167Z,10.50
2017-07-27T18:07:11.643Z,9.60
2017-07-27T18:09:41.384Z,10.90
2017-07-27T18:12:20.285Z,10.50
2017-07-27T18:14:51.804Z,10.90
2017-07-27T18:17:20.901Z,10.80
2017-07-27T18:19:57.270Z,10.33
2017-07-27T18:22:25.475Z,9.87
2017-07-27T18:24:53.102Z,11.90
2017-07-27T18:27:20.984Z,12.83
2017-07-27T18:29:48.631Z,16.57
2017-07-27T18:32:17.036Z,10.70
2017-07-27T18:34:44.635Z,10.10
2017-07-27T18:37:12.229Z,10.83
2017-07-27T18:39:40.894Z,15.50
2017-07-27T18:42:08.511Z,16.00
2017-07-27T18:44:36.104Z,15.07
2017-07-27T18:47:03.724Z,13.23
2017-07-27T18:49:32.014Z,10.90
2017-07-27T18:52:01.649Z,13.17
2017-07-27T18:54:29.265Z,11.63
2017-07-27T18:56:56.838Z,10.87
2017-07-27T18:59:24.438Z,9.10
2017-07-27T19:01:52.026Z,9.77
2017-07-27T19:04:20.778Z,10.40
2017-07-27T19:06:48.634Z,10.47
2017-07-27T19:09:16.205Z,9.60
2017-07-27T19:11:43.846Z,11.80
2017-07-27T19:14:11.422Z,14.20
2017-07-27T19:16:39.279Z,12.40
2017-07-27T19:19:06.947Z,16.33
2017-07-27T19:21:34.545Z,13.20
2017-07-27T19:24:02.163Z,11.37
2017-07-27T19:26:29.763Z,10.40
2017-07-27T19:28:57.642Z,12.97
2017-07-27T19:31:25.260Z,12.53
2017-07-27T19:33:52.835Z,10.80
2017-07-27T19:36:20.476Z,10.60
2017-07-27T19:38:48.062Z,10.50
2017-07-27T19:41:15.951Z,11.10
2017-07-27T19:43:44.418Z,12.30
2017-07-27T19:46:13.401Z,12.23
2017-07-27T19:48:41.054Z,11.30
2017-07-27T19:51:11.684Z,9.93
2017-07-27T19:53:39.568Z,11.13
2017-07-27T19:56:07.143Z,9.90
2017-07-27T19:58:34.703Z,10.43
2017-07-27T20:01:02.313Z,13.80
2017-07-27T20:03:29.874Z,10.40
2017-07-27T20:05:57.836Z,11.83
2017-07-27T20:08:25.424Z,11.13
2017-07-27T20:10:53.002Z,10.70
2017-07-27T20:13:20.667Z,11.27
2017-07-27T20:15:48.220Z,10.57
2017-07-27T20:18:16.245Z,9.73
2017-07-27T20:20:44.598Z,10.87
2017-07-27T20:23:12.154Z,10.07
2017-07-27T20:25:39.736Z,11.20
2017-07-27T20:28:07.371Z,10.97
2017-07-27T20:30:35.242Z,11.53
2017-07-27T20:33:02.957Z,9.10
2017-07-27T20:35:30.541Z,9.10
2017-07-27T20:37:58.188Z,10.00
2017-07-27T20:40:25.749Z,9.27
2017-07-27T20:42:53.830Z,9.23
2017-07-27T20:45:21.488Z,10.53
2017-07-27T20:47:49.074Z,11.10
2017-07-27T20:50:16.713Z,10.60
2017-07-27T20:52:44.272Z,14.73
2017-07-27T20:55:12.156Z,11.57
2017-07-27T20:57:40.517Z,11.27
2017-07-27T21:00:08.169Z,11.53
2017-07-27T21:02:35.744Z,11.23
2017-07-27T21:05:03.278Z,12.53
2017-07-27T21:07:31.222Z,12.23
2017-07-27T21:09:58.775Z,11.33
2017-07-27T21:12:27.142Z,11.67
2017-07-27T21:14:54.786Z,12.27
2017-07-27T21:17:22.324Z,11.73
2017-07-27T21:19:50.222Z,12.40
2017-07-27T21:22:17.785Z,12.07
2017-07-27T21:24:45.340Z,11.10
2017-07-27T21:27:12.915Z,10.83
2017-07-27T21:29:40.479Z,10.70
2017-07-27T21:32:08.357Z,10.80
2017-07-27T21:34:38.665Z,9.60
2017-07-27T21:37:06.208Z,7.83
2017-07-27T21:39:33.848Z,9.37
2017-07-27T21:42:01.461Z,9.30
2017-07-27T21:44:29.314Z,8.07
2017-07-27T21:46:56.864Z,9.37
2017-07-27T21:49:24.412Z,7.90
2017-07-27T21:51:52.088Z,8.03
2017-07-27T21:54:19.645Z,9.23
2017-07-27T21:56:47.538Z,8.67
2017-07-27T21:59:15.162Z,8.50
2017-07-27T22:01:42.712Z,8.47
2017-07-27T22:04:10.249Z,8.53
2017-07-27T22:06:38.545Z,8.80
2017-07-27T22:09:06.396Z,8.40
2017-07-27T22:11:34.723Z,9.07
2017-07-27T22:14:02.379Z,7.07
2017-07-27T22:16:29.942Z,7.97
2017-07-27T22:18:57.493Z,7.30
2017-07-27T22:21:25.381Z,7.27
2017-07-27T22:23:56.160Z,7.10
2017-07-27T22:26:24.527Z,7.17
2017-07-27T22:28:52.097Z,7.33
2017-07-27T22:31:20.412Z,7.67
2017-07-27T22:33:49.243Z,8.03
2017-07-27T22:36:16.787Z,6.83
2017-07-27T22:38:44.402Z,7.47
2017-07-27T22:41:12.712Z,9.90
2017-07-27T22:43:40.310Z,10.30
2017-07-27T22:46:08.151Z,7.83
2017-07-27T22:48:35.719Z,7.30
2017-07-27T22:51:03.270Z,8.20
2017-07-27T22:53:30.841Z,6.93
2017-07-27T22:55:58.368Z,7.43
2017-07-27T22:58:26.250Z,6.20
2017-07-27T23:00:53.814Z,8.87
2017-07-27T23:03:21.342Z,8.30
2017-07-27T23:05:48.906Z,14.03
2017-07-27T23:08:19.892Z,14.90
2017-07-27T23:10:47.727Z,6.87
2017-07-27T23:13:15.262Z,7.40
2017-07-27T23:15:43.542Z,6.70
2017-07-27T23:18:11.856Z,6.70
2017-07-27T23:20:39.679Z,8.07
2017-07-27T23:23:07.969Z,6.93
2017-07-27T23:25:35.590Z,8.70
2017-07-27T23:28:03.120Z,9.10
2017-07-27T23:30:30.721Z,8.50
2017-07-27T23:32:58.303Z,9.83
2017-07-27T23:35:26.906Z,9.47
2017-07-27T23:37:54.457Z,9.03
2017-07-27T23:40:21.984Z,8.50
2017-07-27T23:42:49.557Z,9.90
2017-07-27T23:45:17.110Z,7.70
2017-07-27T23:47:44.961Z,6.70
2017-07-27T23:50:12.503Z,6.80
2017-07-27T23:52:40.045Z,7.70
2017-07-27T23:55:07.620Z,7.80
2017-07-27T23:57:35.173Z,13.80
